Weather reports worldwide

Advertisment
S. Valentino Alla Muta, Italy (16008): temperature & dewpoint: 15.02.2019 21:00:00 - 21.02.2019 21:00:00 (CET)S. Valentino Alla Muta, Italy (16008): wind speed: 15.02.2019 21:00:00 - 21.02.2019 21:00:00 (CET)S. Valentino Alla Muta, Italy (16008): wind direction: 15.02.2019 21:00:00 - 21.02.2019 21:00:00 (CET)S. Valentino Alla Muta, Italy (16008): visibility: 15.02.2019 21:00:00 - 21.02.2019 21:00:00 (CET)
Date & Time tt [°C] td [°C] ff [km/h] ff [kn] dd vv [km]
21.02.2019 21:00:00 3,0 -2,3 8 4 N 20
21.02.2019 20:00:00 4,0 -3,1 8 4 NNE 20
21.02.2019 19:00:00 4,8 -4,7 8 4 NE 20
21.02.2019 18:00:00 6,0 -4,2 8 4 NNE 20
21.02.2019 17:00:00 7,0 -6,0 8 4 NNE 20
21.02.2019 16:00:00 9,8 -7,4 9 5 N 20
21.02.2019 15:00:00 10,0 -7,7 11 6 NNE 30
21.02.2019 14:00:00 10,0 -7,7 9 5 N 30
21.02.2019 13:00:00 9,8 -7,8 9 5 NNE 30
21.02.2019 12:00:00 7,4 -3,5 9 5 N 30
21.02.2019 11:00:00 5,2 -2,9 8 4 N 30
21.02.2019 10:00:00 1,4 -3,5 11 6 N 30
21.02.2019 09:00:00 -1,6 -4,6 13 7 NNE 30
21.02.2019 08:00:00 -1,6 -4,1 11 6 NNE 20
21.02.2019 07:00:00 -1,0 -3,8 11 6 NNE 10
21.02.2019 06:00:00 -0,8 -4,2 13 7 NNE 10
21.02.2019 05:00:00 -0,8 -4,2 11 6 NNE 10
21.02.2019 04:00:00 -0,8 -4,2 9 5 NNE 10
21.02.2019 03:00:00 -0,8 -4,2 11 6 NNE 10
21.02.2019 02:00:00 -0,4 -4,3 8 4 N 10
21.02.2019 01:00:00 -0,2 -4,6 9 5 NNE 10
21.02.2019 00:00:00 0,2 -3,9 8 4 NNE 10
20.02.2019 23:00:00 1,4 -4,3 9 5 NE 10
20.02.2019 22:00:00 1,6 -4,3 8 4 NNE 10
20.02.2019 21:00:00 2,4 -3,5 8 4 NNE 10
20.02.2019 20:00:00 2,8 -3,5 5 3 NNE 20
20.02.2019 19:00:00 3,4 -3,4 5 3 NNE 20
20.02.2019 18:00:00 4,2 -4,8 5 3 NNE 30
20.02.2019 17:00:00 6,2 -5,7 4 2 NNE 30
20.02.2019 16:00:00 8,6 -4,2 4 2 NNE 30
20.02.2019 15:00:00 8,6 -4,6 9 5 NNE 30
20.02.2019 14:00:00 8,0 -2,9 5 3 N 30
20.02.2019 13:00:00 7,6 -2,7 8 4 N 30
20.02.2019 12:00:00 6,6 -2,6 8 4 N 30
20.02.2019 11:00:00 3,8 -2,2 9 5 N 30
20.02.2019 10:00:00 0,0 -3,5 9 5 N 30
20.02.2019 09:00:00 -2,2 -5,3 9 5 N 30
20.02.2019 08:00:00 -3,0 -5,3 11 6 NNE 30
20.02.2019 07:00:00 -3,0 -5,5 9 5 NNE 30
20.02.2019 06:00:00 -2,6 -5,2 13 7 NNE 30
20.02.2019 05:00:00 -1,8 -5,0 13 7 NNE 30
20.02.2019 04:00:00 -1,8 -5,0 11 6 N 30
20.02.2019 03:00:00 -2,0 -5,5 8 4 N 30
20.02.2019 02:00:00 -1,8 -5,3 5 3 N 30
20.02.2019 01:00:00 -1,4 -5,1 9 5 N 30
20.02.2019 00:00:00 -0,6 -4,8 8 4 NNE 30
19.02.2019 23:00:00 -0,2 -4,8 8 4 NNE 30
19.02.2019 22:00:00 0,8 -4,6 5 3 NNE 30
19.02.2019 21:00:00 1,2 -4,6 9 5 N 30
19.02.2019 20:00:00 2,6 -4,4 8 4 N 30
19.02.2019 19:00:00 3,6 -4,6 5 3 N 30
19.02.2019 18:00:00 4,8 -5,3 5 3 NNE 30
19.02.2019 17:00:00 8,8 -9,2 5 3 N 30
19.02.2019 16:00:00 9,6 -10,0 5 3 N 30
19.02.2019 15:00:00 10,0 -9,6 11 6 N 30
19.02.2019 14:00:00 10,2 -10,0 9 5 N 30
19.02.2019 13:00:00 10,2 -10,6 13 7 NNE 30
19.02.2019 12:00:00 8,6 -7,6 15 8 NNE 30
19.02.2019 11:00:00 5,0 -5,4 13 7 N 30
19.02.2019 10:00:00 0,6 -4,8 9 5 N 30
19.02.2019 09:00:00 -1,8 -6,0 9 5 N 30
19.02.2019 08:00:00 -3,0 -6,6 9 5 N 10
19.02.2019 07:00:00 -3,8 -7,4 11 6 N 10
19.02.2019 06:00:00 -3,2 -6,0 13 7 N 10
19.02.2019 05:00:00 -3,0 -6,0 15 8 NNE 10
19.02.2019 04:00:00 -3,0 -6,0 13 7 NNE 10
19.02.2019 03:00:00 -3,0 -6,0 5 3 NNE 10
19.02.2019 02:00:00 -3,0 -5,8 5 3 NNE 10
19.02.2019 01:00:00 -3,0 -6,0 0 0 N 10
19.02.2019 00:00:00 -2,4 -5,5 5 3 N 10
18.02.2019 23:00:00 -1,2 -6,5 0 0 N 10
18.02.2019 22:00:00 -1,0 -5,8 5 3 N 10
18.02.2019 21:00:00 0,0 -4,8 0 0 N 10
18.02.2019 20:00:00 1,8 -3,5 5 3 N 20
18.02.2019 19:00:00 3,2 -4,0 0 0 N 20
18.02.2019 18:00:00 6,2 -4,3 0 0 N 30
18.02.2019 17:00:00 8,2 -10,2 11 6 WSW 20
18.02.2019 16:00:00 10,2 -8,4 11 6 SW 30
18.02.2019 15:00:00 10,6 -11,4 5 3 SW 30
18.02.2019 14:00:00 10,8 -11,3 8 4 SW 30
18.02.2019 13:00:00 9,6 -7,6 0 0 N 30
18.02.2019 12:00:00 5,0 -6,2 9 5 NNE 10
18.02.2019 11:00:00 2,8 -5,8 13 7 NNE 20
18.02.2019 10:00:00 -1,2 -8,2 13 7 NNE 30
18.02.2019 09:00:00 -4,0 -8,8 15 8 NNE 30
18.02.2019 08:00:00 -4,0 -8,7 15 8 NNE 30
18.02.2019 07:00:00 -4,0 -8,7 13 7 NNE 30
18.02.2019 06:00:00 -3,0 -7,7 11 6 NNE 30
18.02.2019 05:00:00 -3,0 -7,7 13 7 NNE 30
18.02.2019 04:00:00 -3,0 -7,7 13 7 NNE 30
18.02.2019 03:00:00 -3,0 -7,7 13 7 NNE 30
18.02.2019 02:00:00 -2,0 -7,3 13 7 N 30
18.02.2019 01:00:00 -1,6 -6,9 11 6 NNE 30
18.02.2019 00:00:00 -1,2 -6,7 13 7 NNE 30
17.02.2019 23:00:00 -1,0 -6,5 15 8 NNE 30
17.02.2019 22:00:00 -0,4 -6,2 16 9 NNE 30
17.02.2019 21:00:00 0,6 -5,6 13 7 NNE 30
17.02.2019 20:00:00 1,6 -5,3 9 5 NNE 30
17.02.2019 19:00:00 3,6 -4,1 9 5 NNE 30
17.02.2019 18:00:00 4,8 -3,5 5 3 NNE 30
17.02.2019 17:00:00 6,8 -5,9 0 0 N 30
17.02.2019 16:00:00 9,6 -4,7 5 3 N 30
17.02.2019 15:00:00 10,4 -11,0 5 3 N 30
17.02.2019 14:00:00 9,8 -10,3 5 3 N 30
17.02.2019 13:00:00 9,2 -8,4 9 5 NNE 30
17.02.2019 12:00:00 2,6 -12,1 13 7 NNE 30
17.02.2019 11:00:00 1,8 -8,9 11 6 N 30
17.02.2019 10:00:00 -0,8 -8,0 13 7 N 30
17.02.2019 09:00:00 -3,8 -9,0 11 6 N 10
17.02.2019 08:00:00 -3,2 -8,6 9 5 N 10
17.02.2019 07:00:00 -3,2 -9,0 9 5 N 10
17.02.2019 06:00:00 -3,2 -8,6 9 5 N 10
17.02.2019 05:00:00 -3,0 -8,5 9 5 N 10
17.02.2019 04:00:00 -3,2 -8,5 9 5 NNE 10
17.02.2019 03:00:00 -3,0 -8,3 11 6 N 10
17.02.2019 02:00:00 -2,0 -7,9 9 5 N 10
17.02.2019 01:00:00 -2,0 -8,1 9 5 N 10
17.02.2019 00:00:00 0,8 -7,4 8 4 N 10
16.02.2019 23:00:00 0,8 -6,5 9 5 NNE 10
16.02.2019 22:00:00 0,4 -7,6 9 5 NNE 20
16.02.2019 21:00:00 1,0 -6,3 9 5 NNE 20
16.02.2019 20:00:00 1,8 -8,1 11 6 NNE 20
16.02.2019 19:00:00 3,8 -7,3 11 6 N 20
16.02.2019 18:00:00 5,0 -8,1 5 3 NNE 10
16.02.2019 17:00:00 - - - - - -
16.02.2019 16:00:00 10,0 -5,1 5 3 N 30
16.02.2019 15:00:00 9,0 -8,1 13 7 NNE 30
16.02.2019 14:00:00 8,8 -8,3 11 6 N 30
16.02.2019 13:00:00 8,0 -8,5 11 6 N 30
16.02.2019 12:00:00 5,6 -7,9 13 7 NNE 30
16.02.2019 11:00:00 3,0 -8,1 13 7 NNE 20
16.02.2019 10:00:00 -1,2 -5,4 13 7 N 10
16.02.2019 09:00:00 -5,0 -9,1 13 7 N 30
16.02.2019 08:00:00 -5,2 -8,8 11 6 N 30
16.02.2019 07:00:00 -4,4 -8,2 13 7 NNE 30
16.02.2019 06:00:00 - - - - - -
16.02.2019 05:00:00 - - - - - -
16.02.2019 04:00:00 -3,2 -7,7 13 7 NNE 20
16.02.2019 03:00:00 -3,0 -7,9 11 6 NNE 20
16.02.2019 02:00:00 -2,8 -8,1 11 6 NNE 20
16.02.2019 01:00:00 -2,8 -8,1 13 7 NNE 20
16.02.2019 00:00:00 -0,6 -7,0 13 7 NNE 20
15.02.2019 23:00:00 0,2 -6,9 9 5 NNE 20
15.02.2019 22:00:00 0,6 -5,6 9 5 NNE 20
15.02.2019 21:00:00 1,0 -6,8 11 6 NNE 30

tt = temperature
td = dewpoint
ff = wind speed
dd = wind direction
vv = visibility

Next stations